الصفحة الرئيسية
METAR-TAF:

METAR-TAF

مطار :

Raton Municipal Airport (Crews Field)

Raton, نيومكسيكو, الولايات المتحدة

دائرة عرض: 36-44-31N, خط طول: 104-39-28W, ارتفاع: 1935 متر

مراقبة الطقس الحالي

تاريخ ووقت الإصدار 44 دقيقة قبل الساعة 01:53UTC
ريح 5 عقدة من الجنوب/الجنوب الشرقي
درجة الحرارة 23°درجة مئوية
الرطوبة 19%
ضغط 1018 hPa
الرؤية: 16.1 كم
سماء صافية

METAR: KRTN 260153Z AUTO 16005KT 10SM CLR 23/M02 A3005 RMK AO2 SLP093 T02331017

زمن: 20:37 (02:37 UTC)


TAF: مفقودة

أرصاد الطقس والتوقعات من أكثر من 4000 مطار (تقارير الطقس للمطار METAR والتنبؤ بالطقس بالمطارTAF).

المحطات المتاحة هي النقط الصفراء والحمراء على الخريطة.

حرك المؤشر فوق النقطة لمعرفة اسم المحطة.

ثم انقر لمعرفة أرصاد وتوقعات الطقس.

لتغيير الخارطة: اضغط على الأزرار الخضراء مع رمز الصليب الأسود للتكبير. على الزر الأخضر مع شرطة للتصغير، أو على الأسهم الخضراء للخرائط المجاورة.


METAR-TAF: